Time;durP1;ratioP1;P1;durP2;ratioP2;P2;SDS_P1;SDS_P2;PMS_P1;PMS_P2;Temp;Humidity;BMP_temperature;BMP_pressure;BME280_temperature;BME280_humidity;BME280_pressure;Samples;Min_cycle;Max_cycle;Signal;HPM_P1;HPM_P2
2023/07/24 00:01:17;;;;;;;;;;;23.40;83.80;;;;;;7406553;19;19911;-76
2023/07/24 00:03:45;;;;;;;;;;;23.50;83.70;;;;;;7386316;19;19907;-76
2023/07/24 00:06:15;;;;;;;;;;;23.60;83.40;;;;;;7385531;19;19987;-77
2023/07/24 00:08:46;;;;;;;;;;;23.70;83.10;;;;;;7386788;19;19915;-76
2023/07/24 00:11:21;;;;;;;;;;;23.70;83.00;;;;;;7384595;19;19911;-75
2023/07/24 00:13:50;;;;;;;;;;;23.70;83.00;;;;;;7384399;19;19907;-77
2023/07/24 00:19:07;;;;;;;;;;;23.70;83.00;;;;;;7383736;19;19919;-77
2023/07/24 00:21:36;;;;;;;;;;;23.70;82.80;;;;;;7383502;19;19962;-76
2023/07/24 00:24:10;;;;;;;;;;;23.80;82.70;;;;;;7385246;19;19907;-76
2023/07/24 00:29:36;;;;;;;;;;;23.70;82.80;;;;;;7388677;19;19914;-76
2023/07/24 00:32:04;;;;;;;;;;;23.70;82.80;;;;;;7391016;19;19911;-76
2023/07/24 00:34:33;;;;;;;;;;;23.60;82.80;;;;;;7399955;19;19907;-76
2023/07/24 01:08:47;;;;;;;;;;;24.10;81.50;;;;;;7416383;19;19970;-76
2023/07/24 01:12:01;;;;;;;;;;;;;;;;;;;;;
2023/07/24 01:21:04;;;;;;;;;;;23.80;81.00;;;;;;7417699;19;20155;-75
2023/07/24 01:23:51;;;;;;;;;;;23.70;80.80;;;;;;7437460;19;20227;-76
2023/07/24 01:33:15;;;;;;;;;;;;;;;;;;;;;
2023/07/24 01:39:32;;;;;;;;;;;23.70;80.20;;;;;;7415374;19;20009;-77
2023/07/24 02:13:14;;;;;;;;;;;23.90;80.30;;;;;;7193190;19;3703410;-76
2023/07/24 02:16:00;;;;;;;;;;;;;;;;;;;;;
2023/07/24 02:24:37;;;;;;;;;;;;;;;;;;;;;
2023/07/24 02:33:17;;;;;;;;;;;23.40;86.90;;;;;;7410949;19;19993;-77
2023/07/24 02:35:56;;;;;;;;;;;23.40;86.00;;;;;;7412420;19;19939;-76
2023/07/24 02:38:24;;;;;;;;;;;23.30;86.30;;;;;;7412198;19;19915;-77
2023/07/24 02:40:53;;;;;;;;;;;23.30;86.60;;;;;;7410879;19;19915;-75
2023/07/24 02:43:21;;;;;;;;;;;23.30;86.70;;;;;;7432246;19;20214;-75
2023/07/24 02:45:53;;;;;;;;;;;23.30;86.80;;;;;;7415497;19;20346;-75
2023/07/24 02:48:21;;;;;;;;;;;23.30;86.80;;;;;;7417716;19;19927;-75
2023/07/24 02:50:50;;;;;;;;;;;23.30;85.50;;;;;;7419593;19;19923;-75
2023/07/24 02:53:19;;;;;;;;;;;23.30;86.10;;;;;;7415842;19;19916;-75
2023/07/24 02:55:47;;;;;;;;;;;23.30;86.80;;;;;;7413935;19;19907;-75
2023/07/24 02:58:16;;;;;;;;;;;23.30;86.30;;;;;;7434642;19;19907;-76
2023/07/24 03:00:46;;;;;;;;;;;23.20;86.30;;;;;;7415484;19;19903;-76
2023/07/24 03:03:17;;;;;;;;;;;23.10;85.80;;;;;;7417503;19;19936;-77
2023/07/24 03:05:46;;;;;;;;;;;23.10;86.30;;;;;;7419767;19;20234;-76
2023/07/24 03:08:17;;;;;;;;;;;23.10;85.80;;;;;;7425367;19;19903;-76
2023/07/24 04:06:06;;;;;;;;;;;22.30;90.90;;;;;;7416184;19;19910;-76
2023/07/24 04:08:44;;;;;;;;;;;22.50;90.60;;;;;;7416233;19;19918;-77
2023/07/24 04:11:40;;;;;;;;;;;22.40;91.00;;;;;;7420734;19;19915;-77
2023/07/24 04:14:21;;;;;;;;;;;;;;;;;;;;;
2023/07/24 04:19:37;;;;;;;;;;;22.40;91.30;;;;;;7432327;19;19925;-76
2023/07/24 04:25:07;;;;;;;;;;;22.40;91.30;;;;;;7434090;19;19903;-77
2023/07/24 04:27:42;;;;;;;;;;;22.40;91.20;;;;;;7417356;19;19918;-77
2023/07/24 04:30:14;;;;;;;;;;;22.30;91.70;;;;;;7417120;19;19914;-76
2023/07/24 04:32:42;;;;;;;;;;;22.20;91.50;;;;;;7418436;19;19906;-75
2023/07/24 04:35:15;;;;;;;;;;;22.20;91.60;;;;;;7416288;19;19931;-76
2023/07/24 04:37:51;;;;;;;;;;;22.30;91.60;;;;;;7414393;19;19922;-76
2023/07/24 04:40:26;;;;;;;;;;;22.10;91.60;;;;;;7441364;19;20260;-76
2023/07/24 04:42:57;;;;;;;;;;;22.10;91.70;;;;;;7417718;19;19911;-76
2023/07/24 04:45:29;;;;;;;;;;;22.30;91.60;;;;;;7417204;19;19915;-76
2023/07/24 04:48:03;;;;;;;;;;;22.40;91.60;;;;;;7416047;19;19914;-76
2023/07/24 04:50:51;;;;;;;;;;;22.40;91.40;;;;;;7417946;19;20009;-76
2023/07/24 04:53:25;;;;;;;;;;;22.40;91.60;;;;;;7412916;19;19915;-76
2023/07/24 04:56:13;;;;;;;;;;;;;;;;;;;;;
2023/07/24 04:58:42;;;;;;;;;;;22.40;90.80;;;;;;7416498;19;19917;-76
2023/07/24 05:01:10;;;;;;;;;;;22.40;90.70;;;;;;7435471;19;19938;-76
2023/07/24 05:03:41;;;;;;;;;;;22.40;90.70;;;;;;7417406;19;19915;-76
2023/07/24 05:06:18;;;;;;;;;;;22.40;90.60;;;;;;7394292;19;19929;-76
2023/07/24 05:08:57;;;;;;;;;;;22.50;90.30;;;;;;7387125;19;19910;-77
2023/07/24 05:11:32;;;;;;;;;;;22.40;90.00;;;;;;7385304;19;19918;-76
2023/07/24 05:14:01;;;;;;;;;;;22.30;89.20;;;;;;7386335;19;19970;-76
2023/07/24 05:23:01;;;;;;;;;;;22.10;89.60;;;;;;7385617;19;19907;-76
2023/07/24 05:25:31;;;;;;;;;;;22.20;88.90;;;;;;7407421;19;19922;-76
2023/07/24 05:28:02;;;;;;;;;;;22.20;89.00;;;;;;7383376;19;20100;-75
2023/07/24 05:30:31;;;;;;;;;;;22.10;87.70;;;;;;7382540;19;19910;-76
2023/07/24 05:32:59;;;;;;;;;;;22.20;88.00;;;;;;7381642;19;19915;-75
2023/07/24 05:35:28;;;;;;;;;;;22.20;87.60;;;;;;7381833;19;19907;-75
2023/07/24 05:37:56;;;;;;;;;;;22.20;87.20;;;;;;7381798;19;19935;-75
2023/07/24 05:40:25;;;;;;;;;;;22.20;87.40;;;;;;7401867;19;20251;-76
2023/07/24 05:42:53;;;;;;;;;;;22.30;86.60;;;;;;7382683;19;20004;-75
2023/07/24 05:45:26;;;;;;;;;;;22.30;86.20;;;;;;7382168;19;19906;-76
2023/07/24 05:47:54;;;;;;;;;;;22.10;86.20;;;;;;7381869;19;19923;-76
2023/07/24 05:50:23;;;;;;;;;;;22.00;86.80;;;;;;7384276;19;19919;-76
2023/07/24 05:52:51;;;;;;;;;;;21.90;86.90;;;;;;7380773;19;19915;-75
2023/07/24 05:55:20;;;;;;;;;;;22.00;87.20;;;;;;7401466;19;19907;-76
2023/07/24 05:57:48;;;;;;;;;;;21.70;88.30;;;;;;7383565;19;20188;-75
2023/07/24 06:00:17;;;;;;;;;;;21.80;88.30;;;;;;7383165;19;19915;-75
2023/07/24 06:02:48;;;;;;;;;;;21.90;88.30;;;;;;7383838;19;19927;-75
2023/07/24 06:05:17;;;;;;;;;;;22.10;88.10;;;;;;7382890;19;19924;-76
2023/07/24 06:07:45;;;;;;;;;;;22.20;87.40;;;;;;7383909;19;19931;-76
2023/07/24 06:10:14;;;;;;;;;;;22.30;87.40;;;;;;7405883;19;19934;-76
2023/07/24 06:12:43;;;;;;;;;;;22.30;87.20;;;;;;7388199;19;19931;-76
2023/07/24 06:15:13;;;;;;;;;;;22.20;86.90;;;;;;7387416;19;19910;-77
2023/07/24 06:17:42;;;;;;;;;;;22.10;86.90;;;;;;7382569;19;19935;-77
2023/07/24 06:20:14;;;;;;;;;;;22.20;86.80;;;;;;7382858;19;19930;-75
2023/07/24 06:22:42;;;;;;;;;;;22.30;86.80;;;;;;7385168;19;19940;-75
2023/07/24 06:25:11;;;;;;;;;;;22.50;86.60;;;;;;7407359;19;19930;-75
2023/07/24 06:27:39;;;;;;;;;;;22.60;85.90;;;;;;7385697;19;19911;-75
2023/07/24 06:30:08;;;;;;;;;;;22.40;84.80;;;;;;7387427;19;19911;-75
2023/07/24 06:32:37;;;;;;;;;;;22.50;85.20;;;;;;7386379;19;19922;-75
2023/07/24 06:35:42;;;;;;;;;;;;;;;;;;;;;
2023/07/24 06:41:15;;;;;;;;;;;22.80;84.50;;;;;;7381690;19;19910;-76
2023/07/24 06:43:52;;;;;;;;;;;22.80;83.60;;;;;;7384527;19;19938;-77
2023/07/24 06:46:20;;;;;;;;;;;22.80;83.80;;;;;;7418813;19;19911;-75
2023/07/24 06:48:52;;;;;;;;;;;22.70;83.90;;;;;;7398246;19;19907;-74
2023/07/24 06:54:28;;;;;;;;;;;22.50;84.40;;;;;;7379880;19;19923;-75
2023/07/24 07:01:54;;;;;;;5.00;2.65;;;22.20;84.70;;;;;;7438639;19;20154;-72
2023/07/24 07:04:27;;;;;;;3.65;2.30;;;22.30;86.10;;;;;;7417162;19;20011;-72
2023/07/24 07:06:57;;;;;;;5.30;2.40;;;22.40;85.80;;;;;;7416453;19;20030;-71
2023/07/24 07:09:26;;;;;;;7.22;3.38;;;22.50;86.30;;;;;;7417801;19;20003;-71
2023/07/24 07:11:55;;;;;;;8.35;2.45;;;22.70;85.50;;;;;;7416885;19;20056;-70
2023/07/24 07:14:23;;;;;;;3.70;1.88;;;22.70;84.80;;;;;;7413923;19;20006;-71
2023/07/24 07:16:55;;;;;;;8.30;2.33;;;22.70;85.10;;;;;;7436115;19;20023;-72
2023/07/24 07:19:23;;;;;;;;;;;22.80;84.80;;;;;;7416563;19;20322;-71
2023/07/24 07:21:52;;;;;;;4.40;2.05;;;22.70;83.40;;;;;;7419828;19;19958;-71
2023/07/24 07:24:20;;;;;;;2.58;1.77;;;22.80;83.80;;;;;;7420684;19;20016;-72
2023/07/24 07:26:49;;;;;;;3.28;1.80;;;22.80;83.40;;;;;;7414877;19;20003;-72
2023/07/24 07:29:18;;;;;;;4.53;1.85;;;23.00;83.10;;;;;;7417441;19;20014;-71
2023/07/24 07:31:49;;;;;;;8.07;2.65;;;22.80;81.50;;;;;;7438495;19;20377;-70
2023/07/24 07:34:21;;;;;;;4.97;2.10;;;22.70;82.90;;;;;;7418105;19;20010;-72
2023/07/24 07:36:49;;;;;;;8.73;2.00;;;22.70;82.20;;;;;;7419176;19;20006;-71
2023/07/24 07:39:18;;;;;;;8.63;2.03;;;22.70;82.60;;;;;;7420354;19;20023;-70
2023/07/24 07:41:47;;;;;;;4.10;2.25;;;22.80;82.50;;;;;;7418660;19;20007;-70
2023/07/24 07:44:17;;;;;;;4.38;2.13;;;22.50;82.40;;;;;;7415624;19;20048;-71
2023/07/24 07:46:45;;;;;;;7.35;2.53;;;22.60;82.90;;;;;;7435589;19;20027;-72
2023/07/24 07:49:14;;;;;;;7.20;2.15;;;22.60;82.20;;;;;;7416314;19;20010;-70
2023/07/24 07:51:45;;;;;;;4.45;2.00;;;22.80;81.80;;;;;;7416148;19;20067;-71
2023/07/24 07:54:15;;;;;;;;;;;22.90;80.80;;;;;;7416146;19;20247;-71
2023/07/24 07:56:44;;;;;;;4.50;1.92;;;23.10;80.20;;;;;;7416917;19;19938;-71
2023/07/24 07:59:13;;;;;;;4.38;1.95;;;23.10;79.10;;;;;;7416498;19;20362;-73
2023/07/24 08:01:42;;;;;;;1.88;1.70;;;23.00;77.30;;;;;;7437504;19;20352;-73
2023/07/24 08:04:11;;;;;;;8.60;2.72;;;22.80;77.70;;;;;;7416011;19;20287;-72
2023/07/24 08:06:39;;;;;;;4.05;1.90;;;22.70;78.20;;;;;;7414276;19;20007;-70
2023/07/24 08:09:10;;;;;;;2.47;2.08;;;22.90;78.50;;;;;;7414006;19;20007;-70
2023/07/24 08:11:39;;;;;;;;;;;22.90;77.70;;;;;;7404085;19;20032;-70
2023/07/24 08:14:08;;;;;;;3.03;1.75;;;22.90;76.70;;;;;;7405990;19;19967;-72
2023/07/24 08:16:40;;;;;;;2.97;1.80;;;22.90;77.10;;;;;;7386357;19;20011;-69
2023/07/24 08:19:08;;;;;;;4.70;1.90;;;22.80;77.30;;;;;;7385954;19;20074;-70
2023/07/24 08:21:38;;;;;;;2.45;1.80;;;23.00;77.10;;;;;;7386364;19;20002;-69
2023/07/24 08:24:10;;;;;;;3.85;1.92;;;22.70;76.80;;;;;;7387937;19;20515;-70
2023/07/24 08:26:39;;;;;;;7.38;2.15;;;22.70;77.50;;;;;;7387026;19;20094;-70
2023/07/24 08:29:08;;;;;;;4.00;1.83;;;22.70;77.90;;;;;;7408077;19;20011;-70
2023/07/24 08:31:36;;;;;;;6.18;2.05;;;22.60;76.90;;;;;;7389031;19;20016;-72
2023/07/24 08:34:08;;;;;;;4.35;1.85;;;22.50;76.10;;;;;;7390369;19;20007;-74
2023/07/24 08:36:37;;;;;;;4.40;1.98;;;22.70;76.40;;;;;;7387123;19;20030;-71
2023/07/24 08:39:06;;;;;;;4.18;2.00;;;22.70;77.40;;;;;;7390635;19;20412;-73
2023/07/24 08:41:39;;;;;;;3.50;1.73;;;23.00;77.00;;;;;;7387577;19;20006;-74
2023/07/24 08:44:10;;;;;;;6.25;1.80;;;23.00;74.40;;;;;;7410135;19;20014;-73
2023/07/24 08:46:41;;;;;;;2.83;1.73;;;22.90;73.80;;;;;;7392473;19;20084;-73
2023/07/24 08:49:14;;;;;;;8.77;2.10;;;22.90;73.60;;;;;;7392387;19;20006;-74
2023/07/24 08:51:44;;;;;;;3.55;1.67;;;23.00;73.30;;;;;;7389785;19;20003;-74
2023/07/24 08:54:14;;;;;;;2.33;1.70;;;23.00;72.60;;;;;;7384459;19;20006;-73
2023/07/24 08:56:47;;;;;;;7.90;2.10;;;22.90;71.50;;;;;;7384454;19;20006;-70
2023/07/24 08:59:15;;;;;;;2.58;1.80;;;23.00;71.70;;;;;;7383835;19;20557;-69
2023/07/24 09:01:44;;;;;;;3.63;2.05;;;23.10;72.30;;;;;;7404408;19;20011;-71
2023/07/24 09:04:13;;;;;;;2.97;1.80;;;23.20;72.50;;;;;;7383365;19;20461;-73
2023/07/24 09:06:42;;;;;;;12.02;2.25;;;23.40;72.20;;;;;;7383183;19;20007;-70
2023/07/24 09:09:15;;;;;;;3.70;1.67;;;23.20;71.40;;;;;;7383426;19;20389;-73
2023/07/24 09:11:58;;;;;;;5.68;1.92;;;23.20;71.40;;;;;;7384687;19;19998;-72
2023/07/24 09:14:28;;;;;;;2.75;1.70;;;23.10;72.40;;;;;;7383763;19;20014;-72
2023/07/24 09:17:07;;;;;;;2.50;1.65;;;23.30;72.20;;;;;;7405807;19;20015;-71
2023/07/24 09:19:43;;;;;;;5.35;1.88;;;23.40;72.20;;;;;;7382917;19;20007;-71
2023/07/24 09:22:23;;;;;;;5.75;1.95;;;23.40;72.40;;;;;;7382144;19;20003;-71
2023/07/24 09:24:52;;;;;;;3.15;2.17;;;23.30;73.10;;;;;;7380143;19;20013;-71
2023/07/24 09:30:23;;;;;;;7.03;1.85;;;23.30;73.80;;;;;;7382380;19;20313;-70
2023/07/24 09:32:58;;;;;;;3.05;2.00;;;23.40;73.00;;;;;;7384371;19;19999;-74
2023/07/24 09:35:28;;;;;;;4.43;2.20;;;23.40;72.50;;;;;;7383212;19;20020;-72
2023/07/24 09:38:06;;;;;;;3.80;1.98;;;23.50;72.50;;;;;;7408950;19;20003;-71
2023/07/24 09:40:42;;;;;;;2.97;1.88;;;23.50;72.40;;;;;;7387945;19;20377;-71
2023/07/24 09:43:22;;;;;;;3.70;1.92;;;23.60;72.20;;;;;;7385117;19;20002;-70
2023/07/24 09:45:52;;;;;;;2.78;1.90;;;23.60;71.80;;;;;;7384719;19;20006;-71
2023/07/24 09:48:25;;;;;;;4.00;1.88;;;23.60;71.80;;;;;;7385239;19;20007;-71
2023/07/24 09:50:57;;;;;;;3.85;1.85;;;23.40;71.60;;;;;;7384515;19;20348;-72
2023/07/24 09:53:55;;;;;;;6.57;1.98;;;23.50;72.40;;;;;;7385435;19;20014;-72
2023/07/24 09:56:25;;;;;;;6.82;1.67;;;23.50;72.20;;;;;;7383635;19;20005;-71
2023/07/24 09:58:58;;;;;;;4.05;1.70;;;23.50;71.30;;;;;;7404199;19;20015;-73
2023/07/24 10:01:28;;;;;;;4.85;1.88;;;23.30;71.10;;;;;;7384308;19;20054;-74
2023/07/24 10:03:58;;;;;;;5.22;1.60;;;23.20;71.30;;;;;;7386138;19;20007;-73
2023/07/24 10:06:45;;;;;;;3.45;1.63;;;23.20;71.50;;;;;;7385381;19;20031;-74
2023/07/24 10:09:15;;;;;;;3.28;1.85;;;23.30;71.70;;;;;;7387257;19;20083;-72
2023/07/24 10:11:43;;;;;;;4.93;2.20;;;23.40;71.60;;;;;;7384369;19;20254;-71
2023/07/24 10:14:15;;;;;;;2.50;1.65;;;23.50;71.10;;;;;;7384826;19;20003;-72
2023/07/24 10:16:44;;;;;;;3.60;1.90;;;23.50;71.20;;;;;;7413031;19;20027;-71
2023/07/24 10:19:17;;;;;;;7.35;1.80;;;23.60;71.40;;;;;;7386149;19;20361;-74
2023/07/24 10:21:50;;;;;;;7.68;2.15;;;23.70;70.90;;;;;;7380604;19;20007;-70
2023/07/24 10:24:23;;;;;;;3.40;2.22;;;23.40;71.10;;;;;;7381331;19;20082;-73
2023/07/24 10:27:01;;;;;;;5.15;2.05;;;23.50;71.30;;;;;;7382680;19;20042;-75
2023/07/24 10:29:37;;;;;;;4.25;1.83;;;23.60;71.40;;;;;;7381862;19;20289;-75
2023/07/24 10:32:07;;;;;;;2.25;1.70;;;23.70;71.40;;;;;;7405915;19;20028;-75
2023/07/24 10:34:45;;;;;;;2.78;1.85;;;23.90;71.20;;;;;;7384256;19;20010;-75
2023/07/24 10:37:14;;;;;;;3.38;1.88;;;24.00;69.90;;;;;;7385831;19;20026;-76
2023/07/24 10:39:45;;;;;;;2.60;1.63;;;24.00;70.30;;;;;;7386675;19;20010;-76
2023/07/24 10:42:15;;;;;;;3.25;1.60;;;24.10;69.70;;;;;;7387094;19;20070;-75
2023/07/24 10:44:46;;;;;;;2.47;1.65;;;24.10;69.00;;;;;;7385664;19;20006;-76
2023/07/24 10:47:18;;;;;;;3.15;1.85;;;24.10;68.70;;;;;;7386169;19;20010;-76
2023/07/24 10:49:51;;;;;;;5.45;1.77;;;24.00;69.30;;;;;;7406460;19;20006;-75
2023/07/24 10:52:20;;;;;;;2.30;1.80;;;24.20;69.50;;;;;;7387218;19;20006;-76
2023/07/24 10:54:57;;;;;;;3.10;1.60;;;24.20;68.30;;;;;;7386597;19;20057;-76
2023/07/24 10:57:29;;;;;;;3.58;1.60;;;24.10;69.00;;;;;;7385599;19;20017;-74
2023/07/24 11:00:04;;;;;;;3.28;2.00;;;24.10;69.70;;;;;;7384087;19;20007;-75
2023/07/24 11:02:36;;;;;;;4.60;2.10;;;24.20;68.80;;;;;;7384260;19;20023;-75
2023/07/24 11:05:04;;;;;;;2.53;1.70;;;24.50;68.80;;;;;;7404349;19;20211;-75
2023/07/24 11:07:38;;;;;;;7.28;2.00;;;24.70;68.30;;;;;;7382647;19;20007;-75
2023/07/24 11:10:17;;;;;;;7.30;1.80;;;24.90;66.90;;;;;;7381479;19;20010;-76
2023/07/24 11:12:46;;;;;;;7.65;2.08;;;25.00;66.40;;;;;;7384000;19;20003;-76
2023/07/24 11:15:21;;;;;;;3.10;1.67;;;24.90;66.00;;;;;;7382045;19;20003;-76
2023/07/24 11:17:50;;;;;;;3.47;1.83;;;24.90;66.40;;;;;;7381011;19;20006;-77
2023/07/24 11:20:24;;;;;;;3.13;2.20;;;24.90;66.90;;;;;;7378746;19;20006;-75
2023/07/24 11:22:55;;;;;;;3.83;1.95;;;24.80;67.30;;;;;;7399155;19;20229;-75
2023/07/24 11:25:24;;;;;;;7.67;2.00;;;24.80;67.90;;;;;;7380501;19;20382;-75
2023/07/24 11:27:53;;;;;;;4.90;1.85;;;24.90;66.50;;;;;;7382834;19;20631;-75
2023/07/24 11:30:28;;;;;;;3.22;1.88;;;24.80;66.60;;;;;;7382423;19;20041;-75
2023/07/24 11:32:59;;;;;;;2.67;1.90;;;25.00;66.50;;;;;;7380431;19;20015;-75
2023/07/24 11:35:28;;;;;;;3.22;1.92;;;25.10;65.10;;;;;;7386104;19;20213;-75
2023/07/24 11:37:57;;;;;;;4.63;1.98;;;25.00;64.50;;;;;;7407107;19;20031;-75
2023/07/24 11:40:34;;;;;;;2.97;1.65;;;24.90;64.70;;;;;;7385139;19;20006;-75
2023/07/24 11:43:06;;;;;;;4.22;2.00;;;24.90;65.40;;;;;;7384608;19;20031;-74
2023/07/24 11:45:46;;;;;;;4.22;2.00;;;24.90;66.10;;;;;;7383564;19;20016;-75
2023/07/24 11:48:16;;;;;;;7.45;2.05;;;24.80;65.20;;;;;;7390172;19;20013;-75
2023/07/24 11:50:47;;;;;;;3.58;2.30;;;25.10;65.40;;;;;;7389691;19;20011;-73
2023/07/24 11:53:26;;;;;;;2.78;2.20;;;25.20;64.60;;;;;;7390307;19;20017;-74
2023/07/24 11:55:58;;;;;;;5.50;1.98;;;25.30;64.80;;;;;;7406819;19;20026;-73
2023/07/24 11:58:30;;;;;;;8.45;1.85;;;25.10;64.10;;;;;;7387820;19;20034;-74
2023/07/24 12:01:02;;;;;;;3.97;2.00;;;25.10;63.50;;;;;;7387218;19;20007;-73
2023/07/24 12:03:37;;;;;;;6.32;2.08;;;24.90;64.00;;;;;;7386866;19;20011;-74
2023/07/24 12:06:06;;;;;;;6.78;2.17;;;25.00;64.10;;;;;;7408706;19;20007;-74
2023/07/24 12:08:37;;;;;;;6.00;2.08;;;25.00;64.20;;;;;;7375897;19;20038;-73
2023/07/24 12:11:06;;;;;;;7.10;2.42;;;24.80;64.40;;;;;;7385061;19;20011;-73
2023/07/24 12:13:35;;;;;;;7.00;2.30;;;24.80;64.60;;;;;;7386687;19;20064;-74
2023/07/24 12:16:07;;;;;;;5.80;2.65;;;25.00;64.60;;;;;;7384434;19;20007;-74
2023/07/24 12:18:51;;;;;;;3.60;1.90;;;25.20;64.70;;;;;;7383608;19;20235;-74
2023/07/24 12:21:25;;;;;;;5.05;1.83;;;25.20;65.30;;;;;;7405049;19;20013;-73
2023/07/24 12:23:54;;;;;;;2.88;2.13;;;25.40;64.10;;;;;;7385008;19;20010;-74
2023/07/24 12:26:25;;;;;;;3.85;2.38;;;25.60;63.80;;;;;;7384956;19;20003;-76
2023/07/24 12:28:53;;;;;;;4.30;2.20;;;25.60;63.60;;;;;;7384323;19;20225;-74
2023/07/24 12:31:26;;;;;;;6.82;2.42;;;25.70;63.90;;;;;;7383705;19;20066;-72
2023/07/24 12:33:57;;;;;;;3.75;2.58;;;25.70;63.70;;;;;;7388013;19;20083;-74
2023/07/24 12:36:29;;;;;;;7.53;2.45;;;25.70;64.00;;;;;;7374826;19;20014;-73
2023/07/24 12:38:58;;;;;;;5.97;2.20;;;25.40;64.40;;;;;;7405485;19;20010;-73
2023/07/24 12:41:37;;;;;;;3.72;2.15;;;25.20;65.00;;;;;;7387910;19;20019;-74
2023/07/24 12:44:06;;;;;;;7.28;1.90;;;24.90;65.50;;;;;;7384823;19;20017;-73
2023/07/24 12:46:37;;;;;;;4.75;2.15;;;24.90;66.10;;;;;;7385335;19;20034;-73
2023/07/24 12:49:06;;;;;;;3.28;1.80;;;25.00;65.90;;;;;;7386154;19;20031;-73
2023/07/24 12:51:35;;;;;;;3.33;2.20;;;25.20;65.50;;;;;;7384372;19;21230;-73
2023/07/24 12:54:19;;;;;;;3.65;1.60;;;25.20;65.30;;;;;;7406590;19;20027;-74
2023/07/24 12:56:51;;;;;;;7.88;2.00;;;25.40;65.90;;;;;;7385698;19;20573;-74
2023/07/24 12:59:23;;;;;;;3.67;1.90;;;25.70;65.30;;;;;;7384145;19;20007;-73
2023/07/24 13:01:54;;;;;;;3.03;1.48;;;25.70;64.90;;;;;;7386790;19;20410;-74
2023/07/24 13:04:24;;;;;;;5.57;2.10;;;25.20;65.00;;;;;;7387375;19;20007;-74
2023/07/24 13:06:53;;;;;;;3.13;1.73;;;25.40;65.50;;;;;;7388821;19;20011;-73
2023/07/24 13:09:23;;;;;;;2.65;1.50;;;25.30;65.90;;;;;;7384383;19;20002;-73
2023/07/24 13:11:54;;;;;;;3.17;1.75;;;25.50;65.70;;;;;;7407663;19;20059;-73
2023/07/24 13:14:23;;;;;;;4.85;1.35;;;25.70;65.50;;;;;;7383272;19;20006;-73
2023/07/24 13:16:56;;;;;;;2.08;1.20;;;25.90;65.50;;;;;;7382694;19;20019;-75
2023/07/24 13:19:24;;;;;;;2.65;1.33;;;26.10;65.50;;;;;;7384420;19;20365;-74
2023/07/24 13:21:53;;;;;;;4.57;1.20;;;26.30;65.10;;;;;;7382366;19;20009;-74
2023/07/24 13:24:22;;;;;;;5.03;1.38;;;26.40;64.80;;;;;;7382058;19;20010;-75
2023/07/24 13:26:51;;;;;;;1.10;1.02;;;26.60;64.70;;;;;;7403773;19;20007;-73
2023/07/24 13:29:19;;;;;;;6.00;1.30;;;26.30;64.60;;;;;;7383067;19;20010;-73
2023/07/24 13:31:48;;;;;;;5.43;1.35;;;26.20;65.00;;;;;;7383636;19;20067;-73
2023/07/24 13:34:20;;;;;;;2.45;1.10;;;26.00;65.30;;;;;;7383978;19;20011;-73
2023/07/24 13:36:49;;;;;;;2.05;1.15;;;25.80;66.10;;;;;;7386774;19;20010;-74
2023/07/24 13:39:18;;;;;;;3.58;0.90;;;25.50;66.60;;;;;;7382900;19;20366;-74
2023/07/24 13:41:46;;;;;;;3.47;1.10;;;25.60;66.70;;;;;;7416226;19;20037;-74
2023/07/24 13:44:15;;;;;;;3.90;1.08;;;25.60;67.00;;;;;;7398694;19;20006;-73
2023/07/24 13:46:44;;;;;;;2.85;1.20;;;25.70;67.30;;;;;;7391580;19;20078;-72
2023/07/24 13:49:13;;;;;;;5.35;1.13;;;25.70;67.20;;;;;;7386759;19;20007;-72
2023/07/24 13:51:47;;;;;;;2.53;0.98;;;25.70;67.20;;;;;;7385059;19;20259;-73
2023/07/24 13:54:15;;;;;;;1.60;1.00;;;25.60;67.70;;;;;;7384816;19;20014;-73
2023/07/24 13:56:44;;;;;;;1.52;1.42;;;25.70;67.90;;;;;;7403955;19;20006;-71
2023/07/24 13:59:14;;;;;;;0.80;0.80;;;25.70;67.30;;;;;;7384662;19;20014;-73
2023/07/24 14:01:45;;;;;;;2.63;1.08;;;25.50;67.50;;;;;;7384521;19;20014;-74
2023/07/24 14:04:14;;;;;;;1.10;0.90;;;25.20;68.50;;;;;;7385975;19;20015;-73
2023/07/24 14:06:46;;;;;;;1.55;0.88;;;25.20;68.80;;;;;;7385621;19;20027;-74
2023/07/24 14:09:15;;;;;;;2.60;1.17;;;25.50;69.30;;;;;;7391469;19;20019;-73
2023/07/24 14:11:44;;;;;;;1.48;1.00;;;25.60;69.60;;;;;;7406223;19;20276;-74
2023/07/24 14:14:15;;;;;;;1.63;1.17;;;25.70;70.40;;;;;;7384741;19;20007;-73
2023/07/24 14:16:44;;;;;;;4.53;1.30;;;25.90;70.60;;;;;;7385533;19;20019;-74
2023/07/24 14:19:12;;;;;;;2.95;1.30;;;26.10;71.20;;;;;;7385697;19;20353;-73
2023/07/24 14:21:41;;;;;;;1.95;1.33;;;26.20;70.90;;;;;;7384784;19;19999;-73
2023/07/24 14:24:16;;;;;;;2.70;1.55;;;26.40;70.10;;;;;;7406447;19;20021;-74
2023/07/24 14:26:45;;;;;;;2.95;1.20;;;26.50;69.40;;;;;;7382131;19;20007;-74
2023/07/24 14:29:22;;;;;;;7.10;1.58;;;26.60;69.60;;;;;;7380422;19;20007;-74
2023/07/24 14:31:51;;;;;;;6.60;1.60;;;26.70;69.10;;;;;;7381878;19;20231;-74
2023/07/24 14:34:20;;;;;;;2.95;1.30;;;26.80;68.80;;;;;;7380814;19;20023;-71
2023/07/24 14:36:48;;;;;;;2.95;1.40;;;27.00;68.90;;;;;;7381630;19;20074;-71
2023/07/24 14:39:19;;;;;;;3.10;1.33;;;27.00;68.00;;;;;;7381482;19;20016;-71
2023/07/24 14:41:51;;;;;;;2.47;1.30;;;26.90;67.90;;;;;;7400626;19;20007;-70
2023/07/24 14:44:19;;;;;;;;;;;27.00;67.90;;;;;;7380890;19;20066;-71
2023/07/24 14:46:48;;;;;;;5.82;1.30;;;27.00;67.60;;;;;;7380955;19;19914;-72
2023/07/24 14:49:18;;;;;;;4.63;1.33;;;26.90;68.10;;;;;;7380885;19;20006;-72
2023/07/24 14:51:47;;;;;;;10.25;1.25;;;26.90;68.50;;;;;;7381121;19;20114;-71
2023/07/24 14:54:15;;;;;;;4.68;1.50;;;26.80;69.00;;;;;;7379282;19;20007;-73
2023/07/24 14:56:46;;;;;;;2.00;0.98;;;26.80;69.10;;;;;;7402616;19;20075;-72
2023/07/24 14:59:15;;;;;;;3.17;1.35;;;26.70;68.80;;;;;;7380020;19;20006;-71
2023/07/24 15:01:44;;;;;;;1.58;1.02;;;26.50;69.00;;;;;;7380392;19;20038;-73
2023/07/24 15:04:13;;;;;;;1.65;0.82;;;26.50;68.90;;;;;;7379259;19;20007;-71
2023/07/24 15:06:41;;;;;;;1.33;0.90;;;26.40;68.90;;;;;;7379163;19;20011;-71
2023/07/24 15:09:11;;;;;;;4.03;1.20;;;26.40;69.10;;;;;;7400407;19;20271;-70
2023/07/24 15:11:42;;;;;;;5.63;1.20;;;26.50;68.70;;;;;;7380131;19;19999;-72
2023/07/24 15:14:14;;;;;;;2.13;0.98;;;26.50;68.60;;;;;;7379621;19;20449;-70
2023/07/24 15:16:42;;;;;;;4.13;0.98;;;26.70;69.20;;;;;;7380482;19;20010;-70
2023/07/24 15:19:11;;;;;;;1.23;1.10;;;26.90;69.00;;;;;;7379582;19;20006;-71
2023/07/24 15:21:40;;;;;;;1.40;1.10;;;27.20;67.70;;;;;;7381335;19;20110;-71
2023/07/24 15:24:08;;;;;;;1.00;0.90;;;27.30;67.40;;;;;;7406736;19;20067;-70
2023/07/24 15:26:37;;;;;;;5.47;1.38;;;27.40;66.70;;;;;;7387106;19;20007;-71
2023/07/24 15:29:06;;;;;;;3.70;1.10;;;27.40;66.20;;;;;;7386136;19;20021;-72
2023/07/24 15:31:37;;;;;;;1.23;0.90;;;27.50;66.70;;;;;;7385969;19;20010;-71
2023/07/24 15:34:06;;;;;;;7.07;1.38;;;27.50;66.70;;;;;;7386996;19;20006;-69
2023/07/24 15:36:36;;;;;;;1.67;1.10;;;27.60;65.80;;;;;;7384557;19;20014;-71
2023/07/24 15:39:05;;;;;;;6.10;1.10;;;27.60;65.70;;;;;;7410748;19;20406;-71
2023/07/24 15:41:34;;;;;;;1.45;0.90;;;27.70;66.30;;;;;;7386762;19;20006;-72
2023/07/24 15:44:03;;;;;;;2.95;1.13;;;27.70;65.10;;;;;;7387303;19;20271;-71
2023/07/24 15:46:31;;;;;;;0.90;0.90;;;27.80;64.70;;;;;;7387665;19;20271;-71
2023/07/24 15:49:03;;;;;;;2.78;1.17;;;27.70;64.60;;;;;;7387177;19;20007;-70
2023/07/24 15:51:32;;;;;;;2.15;1.10;;;27.60;64.40;;;;;;7385971;19;20283;-70
2023/07/24 15:54:07;;;;;;;2.03;1.10;;;27.50;64.80;;;;;;7407394;19;20369;-72
2023/07/24 15:56:36;;;;;;;2.08;1.20;;;27.40;64.50;;;;;;7387244;19;20007;-71
2023/07/24 15:59:05;;;;;;;4.10;1.20;;;27.30;64.90;;;;;;7387355;19;20310;-72
2023/07/24 16:01:33;;;;;;;6.43;1.23;;;27.20;65.50;;;;;;7387182;19;20275;-72
2023/07/24 16:04:05;;;;;;;1.08;0.82;;;27.60;64.60;;;;;;7387028;19;20019;-71
2023/07/24 16:06:33;;;;;;;1.33;1.13;;;28.30;63.70;;;;;;7388760;19;20027;-72
2023/07/24 16:09:03;;;;;;;1.70;1.10;;;29.00;62.50;;;;;;7406968;19;20011;-72
2023/07/24 16:11:32;;;;;;;2.05;1.10;;;29.50;61.00;;;;;;7385344;19;20016;-73
2023/07/24 16:14:00;;;;;;;3.65;1.05;;;29.40;61.00;;;;;;7382822;19;20006;-71
2023/07/24 16:16:29;;;;;;;8.00;1.23;;;29.10;61.40;;;;;;7384289;19;20019;-70
2023/07/24 16:19:15;;;;;;;2.25;0.95;;;28.90;62.50;;;;;;7384974;19;20445;-69
2023/07/24 16:21:46;;;;;;;2.42;1.10;;;28.40;63.70;;;;;;7382794;19;20049;-71
2023/07/24 16:24:16;;;;;;;1.67;1.10;;;27.90;65.10;;;;;;7390384;19;20023;-70
2023/07/24 16:26:45;;;;;;;1.27;1.15;;;27.60;66.20;;;;;;7405478;19;20010;-71
2023/07/24 16:29:14;;;;;;;2.17;1.30;;;27.10;67.70;;;;;;7384387;19;20010;-71
2023/07/24 16:31:43;;;;;;;1.38;1.27;;;26.70;69.20;;;;;;7384866;19;20023;-71
2023/07/24 16:34:12;;;;;;;1.75;1.38;;;26.40;70.30;;;;;;7383090;19;20011;-71
2023/07/24 16:36:44;;;;;;;3.30;1.42;;;26.10;71.10;;;;;;7385147;19;20400;-71
2023/07/24 16:39:12;;;;;;;2.90;1.33;;;26.00;72.40;;;;;;7404360;19;20063;-71